首页
METAR-TAF:

METAR-TAF

机场 :

Mission Field

利文斯顿, 蒙大拿州, 美国

纬度: 45-41-58N, 经度: 110-26-54W, 海拔: 1419米

当前天气观测

该预报发布于29分钟前的07:53 UTC
风速17节,风向西南,有时为24节阵风
温度 4°C
湿度 60%
气压 1016 hPa
能見度: 16.1公里
多云层高于5500英尺
阴天层高于7000英尺

METAR: KLVM 260753Z AUTO 23017G24KT 10SM BKN055 OVC070 04/M03 A3001 RMK AO2 PK WND 22027/0741 SLP166 T00441033

时间: 01:22 (08:22 UTC)

预报

该预报发布于3小时和2分钟前的05:20 UTC
预报有效从26日的 06点(UTC)到 27日的 06点(UTC)
风速18节,风向西转西南,有时为30节阵风
能見度: 10公里
散云层高于5000英尺
多云层高于10000英尺
从 26日的 1400点(UTC)
风速14节,风向西转西南
能見度: 10公里
散云层高于5000英尺
多云层高于10000英尺
从 26日的 2000点(UTC)
风速12节,风向西转西南
能見度: 10公里
多云层高于5000英尺
附近有阵雨
从 27日的 0200点(UTC)
风速10节,风向西南
能見度: 6.4公里
散云层高于1500英尺
阴天层高于2500英尺
小雪, 轻雾

TAF: KLVM 260520Z 2606/2706 25018G30KT P6SM SCT050 BKN100 FM261400 24014KT P6SM SCT050 BKN100 FM262000 24012KT P6SM VCSH BKN050 FM270200 22010KT 4SM -SN BR SCT015 OVC025

超过4000个机场的气象观测和天气预报(METAR&TAF报告)。

可查询的气象台以黄色和红色小点在地图上表示。

将鼠标移到小点上方,可查看气象台名称。

然后点击查看天气观测和预报。

如需切换地图:点击带黑十字的绿色按钮放大地图;点击带横线的绿色按钮缩小地图;或者点击绿色箭头查看邻近地区的地图。


METAR-TAF: